sensor_id;sensor_type;location;lat;lon;timestamp;P1;durP1;ratioP1;P2;durP2;ratioP2
69185;SDS011;56298;49.246;9.410;2023-05-10T00:01:12;4.47;;;2.17;;
69185;SDS011;56298;49.246;9.410;2023-05-10T00:03:38;5.50;;;2.30;;
69185;SDS011;56298;49.246;9.410;2023-05-10T00:06:03;4.30;;;1.77;;
69185;SDS011;56298;49.246;9.410;2023-05-10T00:08:28;3.33;;;1.20;;
69185;SDS011;56298;49.246;9.410;2023-05-10T00:10:53;3.50;;;1.10;;
69185;SDS011;56298;49.246;9.410;2023-05-10T00:13:19;3.47;;;1.10;;
69185;SDS011;56298;49.246;9.410;2023-05-10T00:15:44;3.20;;;1.20;;
69185;SDS011;56298;49.246;9.410;2023-05-10T00:18:09;4.30;;;1.30;;
69185;SDS011;56298;49.246;9.410;2023-05-10T00:20:35;3.00;;;1.00;;
69185;SDS011;56298;49.246;9.410;2023-05-10T00:23:00;3.73;;;1.40;;
69185;SDS011;56298;49.246;9.410;2023-05-10T00:25:25;3.80;;;1.47;;
69185;SDS011;56298;49.246;9.410;2023-05-10T00:27:51;3.83;;;1.30;;
69185;SDS011;56298;49.246;9.410;2023-05-10T00:30:17;3.53;;;1.08;;
69185;SDS011;56298;49.246;9.410;2023-05-10T00:32:42;4.37;;;1.10;;
69185;SDS011;56298;49.246;9.410;2023-05-10T00:35:08;3.63;;;1.00;;
69185;SDS011;56298;49.246;9.410;2023-05-10T00:37:33;3.90;;;0.90;;
69185;SDS011;56298;49.246;9.410;2023-05-10T00:39:59;3.00;;;0.90;;
69185;SDS011;56298;49.246;9.410;2023-05-10T00:42:24;3.30;;;0.70;;
69185;SDS011;56298;49.246;9.410;2023-05-10T00:44:49;3.05;;;0.98;;
69185;SDS011;56298;49.246;9.410;2023-05-10T00:47:15;2.78;;;0.90;;
69185;SDS011;56298;49.246;9.410;2023-05-10T00:49:41;2.80;;;0.90;;
69185;SDS011;56298;49.246;9.410;2023-05-10T00:52:07;3.80;;;1.00;;
69185;SDS011;56298;49.246;9.410;2023-05-10T00:54:33;3.67;;;0.80;;
69185;SDS011;56298;49.246;9.410;2023-05-10T00:56:59;4.40;;;1.00;;
69185;SDS011;56298;49.246;9.410;2023-05-10T00:59:24;5.03;;;1.00;;
69185;SDS011;56298;49.246;9.410;2023-05-10T01:01:50;3.37;;;1.00;;
69185;SDS011;56298;49.246;9.410;2023-05-10T01:04:16;3.42;;;0.90;;
69185;SDS011;56298;49.246;9.410;2023-05-10T01:06:42;2.80;;;0.80;;
69185;SDS011;56298;49.246;9.410;2023-05-10T01:09:07;2.90;;;1.00;;
69185;SDS011;56298;49.246;9.410;2023-05-10T01:11:36;3.30;;;0.90;;
69185;SDS011;56298;49.246;9.410;2023-05-10T01:16:51;3.13;;;1.10;;
69185;SDS011;56298;49.246;9.410;2023-05-10T01:27:17;3.40;;;0.93;;
69185;SDS011;56298;49.246;9.410;2023-05-10T01:33:18;3.90;;;1.10;;
69185;SDS011;56298;49.246;9.410;2023-05-10T01:35:40;3.53;;;1.20;;
69185;SDS011;56298;49.246;9.410;2023-05-10T01:41:01;4.40;;;1.33;;
69185;SDS011;56298;49.246;9.410;2023-05-10T01:43:30;3.10;;;1.20;;
69185;SDS011;56298;49.246;9.410;2023-05-10T01:46:10;4.43;;;1.35;;
69185;SDS011;56298;49.246;9.410;2023-05-10T01:48:47;3.80;;;1.50;;
69185;SDS011;56298;49.246;9.410;2023-05-10T01:51:19;4.00;;;1.50;;
69185;SDS011;56298;49.246;9.410;2023-05-10T01:53:48;3.30;;;1.50;;
69185;SDS011;56298;49.246;9.410;2023-05-10T01:56:14;3.50;;;1.40;;
69185;SDS011;56298;49.246;9.410;2023-05-10T01:58:40;4.47;;;1.80;;
69185;SDS011;56298;49.246;9.410;2023-05-10T02:01:10;3.67;;;1.70;;
69185;SDS011;56298;49.246;9.410;2023-05-10T02:03:36;4.22;;;1.70;;
69185;SDS011;56298;49.246;9.410;2023-05-10T02:06:03;4.35;;;1.85;;
69185;SDS011;56298;49.246;9.410;2023-05-10T02:08:30;3.97;;;1.70;;
69185;SDS011;56298;49.246;9.410;2023-05-10T02:10:56;3.90;;;1.92;;
69185;SDS011;56298;49.246;9.410;2023-05-10T02:13:24;4.30;;;2.13;;
69185;SDS011;56298;49.246;9.410;2023-05-10T02:15:50;4.80;;;2.20;;
69185;SDS011;56298;49.246;9.410;2023-05-10T02:18:16;4.70;;;2.50;;
69185;SDS011;56298;49.246;9.410;2023-05-10T02:20:44;5.85;;;2.65;;
69185;SDS011;56298;49.246;9.410;2023-05-10T02:23:11;4.70;;;2.70;;
69185;SDS011;56298;49.246;9.410;2023-05-10T02:25:37;4.85;;;3.00;;
69185;SDS011;56298;49.246;9.410;2023-05-10T02:28:04;4.63;;;2.57;;
69185;SDS011;56298;49.246;9.410;2023-05-10T02:30:31;5.18;;;3.08;;
69185;SDS011;56298;49.246;9.410;2023-05-10T02:32:58;5.23;;;2.93;;
69185;SDS011;56298;49.246;9.410;2023-05-10T02:35:25;5.10;;;3.00;;
69185;SDS011;56298;49.246;9.410;2023-05-10T02:37:51;5.03;;;3.08;;
69185;SDS011;56298;49.246;9.410;2023-05-10T02:40:18;4.68;;;2.90;;
69185;SDS011;56298;49.246;9.410;2023-05-10T02:42:46;5.18;;;2.75;;
69185;SDS011;56298;49.246;9.410;2023-05-10T02:45:14;6.65;;;3.15;;
69185;SDS011;56298;49.246;9.410;2023-05-10T02:47:43;5.50;;;2.85;;
69185;SDS011;56298;49.246;9.410;2023-05-10T02:50:08;4.80;;;2.77;;
69185;SDS011;56298;49.246;9.410;2023-05-10T02:52:44;6.10;;;3.30;;
69185;SDS011;56298;49.246;9.410;2023-05-10T02:55:12;5.07;;;2.90;;
69185;SDS011;56298;49.246;9.410;2023-05-10T02:57:42;4.90;;;3.10;;
69185;SDS011;56298;49.246;9.410;2023-05-10T03:00:12;4.93;;;3.15;;
69185;SDS011;56298;49.246;9.410;2023-05-10T03:02:37;7.10;;;3.15;;
69185;SDS011;56298;49.246;9.410;2023-05-10T03:05:02;5.30;;;3.13;;
69185;SDS011;56298;49.246;9.410;2023-05-10T03:07:28;4.93;;;3.22;;
69185;SDS011;56298;49.246;9.410;2023-05-10T03:09:53;4.90;;;3.30;;
69185;SDS011;56298;49.246;9.410;2023-05-10T03:18:42;5.00;;;2.80;;
69185;SDS011;56298;49.246;9.410;2023-05-10T03:21:10;5.32;;;3.20;;
69185;SDS011;56298;49.246;9.410;2023-05-10T03:23:41;5.10;;;2.88;;
69185;SDS011;56298;49.246;9.410;2023-05-10T03:26:12;4.43;;;2.80;;
69185;SDS011;56298;49.246;9.410;2023-05-10T03:28:42;4.93;;;3.10;;
69185;SDS011;56298;49.246;9.410;2023-05-10T03:31:09;5.00;;;2.83;;
69185;SDS011;56298;49.246;9.410;2023-05-10T03:33:34;4.63;;;2.90;;
69185;SDS011;56298;49.246;9.410;2023-05-10T03:35:59;5.90;;;3.20;;
69185;SDS011;56298;49.246;9.410;2023-05-10T03:38:25;5.00;;;3.00;;
69185;SDS011;56298;49.246;9.410;2023-05-10T03:40:50;5.10;;;3.07;;
69185;SDS011;56298;49.246;9.410;2023-05-10T03:43:15;5.40;;;3.10;;
69185;SDS011;56298;49.246;9.410;2023-05-10T03:45:41;5.37;;;3.10;;
69185;SDS011;56298;49.246;9.410;2023-05-10T03:48:06;4.93;;;2.70;;
69185;SDS011;56298;49.246;9.410;2023-05-10T03:50:31;6.17;;;3.20;;
69185;SDS011;56298;49.246;9.410;2023-05-10T03:52:56;4.33;;;2.83;;
69185;SDS011;56298;49.246;9.410;2023-05-10T03:55:22;5.10;;;3.20;;
69185;SDS011;56298;49.246;9.410;2023-05-10T03:57:48;5.60;;;3.30;;
69185;SDS011;56298;49.246;9.410;2023-05-10T04:00:14;7.63;;;3.47;;
69185;SDS011;56298;49.246;9.410;2023-05-10T04:02:40;4.78;;;3.00;;
69185;SDS011;56298;49.246;9.410;2023-05-10T04:05:05;6.00;;;3.30;;
69185;SDS011;56298;49.246;9.410;2023-05-10T04:07:31;5.40;;;3.30;;
69185;SDS011;56298;49.246;9.410;2023-05-10T04:09:56;6.50;;;3.37;;
69185;SDS011;56298;49.246;9.410;2023-05-10T04:12:22;5.10;;;3.23;;
69185;SDS011;56298;49.246;9.410;2023-05-10T04:14:47;6.67;;;3.30;;
69185;SDS011;56298;49.246;9.410;2023-05-10T04:17:12;6.30;;;3.77;;
69185;SDS011;56298;49.246;9.410;2023-05-10T04:19:37;6.97;;;3.67;;
69185;SDS011;56298;49.246;9.410;2023-05-10T04:22:03;5.63;;;3.53;;
69185;SDS011;56298;49.246;9.410;2023-05-10T04:24:28;6.37;;;4.10;;
69185;SDS011;56298;49.246;9.410;2023-05-10T04:26:54;5.90;;;3.33;;
69185;SDS011;56298;49.246;9.410;2023-05-10T04:29:19;5.20;;;3.50;;
69185;SDS011;56298;49.246;9.410;2023-05-10T04:31:45;6.37;;;3.40;;
69185;SDS011;56298;49.246;9.410;2023-05-10T04:34:10;6.27;;;3.60;;
69185;SDS011;56298;49.246;9.410;2023-05-10T04:36:35;5.60;;;3.70;;
69185;SDS011;56298;49.246;9.410;2023-05-10T04:39:02;5.47;;;3.30;;
69185;SDS011;56298;49.246;9.410;2023-05-10T04:41:30;5.10;;;3.70;;
69185;SDS011;56298;49.246;9.410;2023-05-10T04:43:56;5.47;;;3.20;;
69185;SDS011;56298;49.246;9.410;2023-05-10T04:46:21;5.37;;;3.23;;
69185;SDS011;56298;49.246;9.410;2023-05-10T04:48:46;4.77;;;2.90;;
69185;SDS011;56298;49.246;9.410;2023-05-10T04:51:12;4.83;;;2.53;;
69185;SDS011;56298;49.246;9.410;2023-05-10T04:53:37;5.20;;;2.77;;
69185;SDS011;56298;49.246;9.410;2023-05-10T04:56:02;5.03;;;2.73;;
69185;SDS011;56298;49.246;9.410;2023-05-10T04:58:28;4.80;;;2.60;;
69185;SDS011;56298;49.246;9.410;2023-05-10T05:00:53;4.30;;;2.53;;
69185;SDS011;56298;49.246;9.410;2023-05-10T05:03:18;6.13;;;3.23;;
69185;SDS011;56298;49.246;9.410;2023-05-10T05:05:44;5.20;;;2.80;;
69185;SDS011;56298;49.246;9.410;2023-05-10T05:08:09;5.68;;;3.35;;
69185;SDS011;56298;49.246;9.410;2023-05-10T05:10:35;6.03;;;3.75;;
69185;SDS011;56298;49.246;9.410;2023-05-10T05:13:00;7.13;;;4.07;;
69185;SDS011;56298;49.246;9.410;2023-05-10T05:15:25;8.10;;;4.10;;
69185;SDS011;56298;49.246;9.410;2023-05-10T05:17:51;7.53;;;4.35;;
69185;SDS011;56298;49.246;9.410;2023-05-10T05:20:16;6.80;;;4.80;;
69185;SDS011;56298;49.246;9.410;2023-05-10T05:22:42;6.75;;;4.38;;
69185;SDS011;56298;49.246;9.410;2023-05-10T05:25:07;7.33;;;4.40;;
69185;SDS011;56298;49.246;9.410;2023-05-10T05:27:33;7.10;;;4.45;;
69185;SDS011;56298;49.246;9.410;2023-05-10T05:29:58;8.47;;;4.60;;
69185;SDS011;56298;49.246;9.410;2023-05-10T05:32:23;6.87;;;4.33;;
69185;SDS011;56298;49.246;9.410;2023-05-10T05:34:49;7.10;;;5.00;;
69185;SDS011;56298;49.246;9.410;2023-05-10T05:37:16;6.70;;;4.80;;
69185;SDS011;56298;49.246;9.410;2023-05-10T05:39:43;9.95;;;4.93;;
69185;SDS011;56298;49.246;9.410;2023-05-10T05:42:09;7.43;;;4.97;;
69185;SDS011;56298;49.246;9.410;2023-05-10T05:44:35;10.10;;;5.47;;
69185;SDS011;56298;49.246;9.410;2023-05-10T05:47:01;8.77;;;5.53;;
69185;SDS011;56298;49.246;9.410;2023-05-10T05:49:26;8.40;;;5.60;;
69185;SDS011;56298;49.246;9.410;2023-05-10T05:51:51;8.17;;;5.13;;
69185;SDS011;56298;49.246;9.410;2023-05-10T05:54:17;8.67;;;5.40;;
69185;SDS011;56298;49.246;9.410;2023-05-10T05:56:42;7.87;;;5.30;;
69185;SDS011;56298;49.246;9.410;2023-05-10T05:59:07;8.00;;;5.27;;
69185;SDS011;56298;49.246;9.410;2023-05-10T06:01:32;8.00;;;5.43;;
69185;SDS011;56298;49.246;9.410;2023-05-10T06:03:58;7.83;;;5.40;;
69185;SDS011;56298;49.246;9.410;2023-05-10T06:06:23;7.93;;;5.10;;
69185;SDS011;56298;49.246;9.410;2023-05-10T06:08:48;7.20;;;4.93;;
69185;SDS011;56298;49.246;9.410;2023-05-10T06:11:14;7.20;;;5.20;;
69185;SDS011;56298;49.246;9.410;2023-05-10T06:13:39;8.27;;;4.70;;
69185;SDS011;56298;49.246;9.410;2023-05-10T06:16:04;8.07;;;5.20;;
69185;SDS011;56298;49.246;9.410;2023-05-10T06:18:30;8.43;;;5.23;;
69185;SDS011;56298;49.246;9.410;2023-05-10T06:20:56;8.70;;;4.47;;
69185;SDS011;56298;49.246;9.410;2023-05-10T06:23:21;7.90;;;4.95;;
69185;SDS011;56298;49.246;9.410;2023-05-10T06:25:47;7.60;;;4.50;;
69185;SDS011;56298;49.246;9.410;2023-05-10T06:28:12;8.60;;;4.27;;
69185;SDS011;56298;49.246;9.410;2023-05-10T06:30:37;7.60;;;4.37;;
69185;SDS011;56298;49.246;9.410;2023-05-10T06:33:03;6.50;;;3.90;;
69185;SDS011;56298;49.246;9.410;2023-05-10T06:35:28;6.60;;;4.20;;
69185;SDS011;56298;49.246;9.410;2023-05-10T06:37:54;6.87;;;4.00;;
69185;SDS011;56298;49.246;9.410;2023-05-10T06:40:20;6.63;;;4.13;;
69185;SDS011;56298;49.246;9.410;2023-05-10T06:42:46;7.07;;;3.83;;
69185;SDS011;56298;49.246;9.410;2023-05-10T06:45:12;8.40;;;4.28;;
69185;SDS011;56298;49.246;9.410;2023-05-10T06:47:37;6.25;;;3.53;;
69185;SDS011;56298;49.246;9.410;2023-05-10T06:50:03;6.30;;;3.72;;
69185;SDS011;56298;49.246;9.410;2023-05-10T06:52:28;7.75;;;3.80;;
69185;SDS011;56298;49.246;9.410;2023-05-10T06:54:53;6.88;;;3.85;;
69185;SDS011;56298;49.246;9.410;2023-05-10T06:57:19;7.10;;;4.13;;
69185;SDS011;56298;49.246;9.410;2023-05-10T06:59:44;7.68;;;4.00;;
69185;SDS011;56298;49.246;9.410;2023-05-10T07:02:09;6.17;;;3.47;;
69185;SDS011;56298;49.246;9.410;2023-05-10T07:04:35;6.10;;;3.50;;
69185;SDS011;56298;49.246;9.410;2023-05-10T07:07:00;7.17;;;2.87;;
69185;SDS011;56298;49.246;9.410;2023-05-10T07:09:25;5.47;;;3.10;;
69185;SDS011;56298;49.246;9.410;2023-05-10T07:11:51;5.23;;;2.77;;
69185;SDS011;56298;49.246;9.410;2023-05-10T07:14:16;5.33;;;2.87;;
69185;SDS011;56298;49.246;9.410;2023-05-10T07:16:42;4.70;;;2.57;;
69185;SDS011;56298;49.246;9.410;2023-05-10T07:19:07;6.43;;;2.67;;
69185;SDS011;56298;49.246;9.410;2023-05-10T07:21:32;4.77;;;2.43;;
69185;SDS011;56298;49.246;9.410;2023-05-10T07:23:57;6.03;;;2.30;;
69185;SDS011;56298;49.246;9.410;2023-05-10T07:26:23;5.83;;;2.27;;
69185;SDS011;56298;49.246;9.410;2023-05-10T07:28:48;5.53;;;2.20;;
69185;SDS011;56298;49.246;9.410;2023-05-10T07:31:14;5.20;;;2.33;;
69185;SDS011;56298;49.246;9.410;2023-05-10T07:33:39;4.87;;;2.13;;
69185;SDS011;56298;49.246;9.410;2023-05-10T07:36:05;5.10;;;2.20;;
69185;SDS011;56298;49.246;9.410;2023-05-10T07:38:30;4.90;;;2.43;;
69185;SDS011;56298;49.246;9.410;2023-05-10T07:40:55;6.30;;;2.57;;
69185;SDS011;56298;49.246;9.410;2023-05-10T07:43:20;4.93;;;2.20;;
69185;SDS011;56298;49.246;9.410;2023-05-10T07:45:46;4.57;;;2.10;;
69185;SDS011;56298;49.246;9.410;2023-05-10T07:48:11;4.30;;;2.27;;
69185;SDS011;56298;49.246;9.410;2023-05-10T07:50:36;5.97;;;2.47;;
69185;SDS011;56298;49.246;9.410;2023-05-10T07:53:01;6.47;;;2.20;;
69185;SDS011;56298;49.246;9.410;2023-05-10T07:55:27;4.60;;;2.03;;
69185;SDS011;56298;49.246;9.410;2023-05-10T07:57:52;6.10;;;2.20;;
69185;SDS011;56298;49.246;9.410;2023-05-10T08:00:18;4.70;;;1.90;;
69185;SDS011;56298;49.246;9.410;2023-05-10T08:02:44;5.43;;;2.47;;
69185;SDS011;56298;49.246;9.410;2023-05-10T08:05:10;7.50;;;2.57;;
69185;SDS011;56298;49.246;9.410;2023-05-10T08:07:35;5.20;;;2.10;;
69185;SDS011;56298;49.246;9.410;2023-05-10T08:10:01;4.83;;;2.20;;
69185;SDS011;56298;49.246;9.410;2023-05-10T08:12:27;4.35;;;1.80;;
69185;SDS011;56298;49.246;9.410;2023-05-10T08:14:52;4.90;;;2.07;;
69185;SDS011;56298;49.246;9.410;2023-05-10T08:17:17;4.20;;;2.27;;
69185;SDS011;56298;49.246;9.410;2023-05-10T08:19:43;4.47;;;2.20;;
69185;SDS011;56298;49.246;9.410;2023-05-10T08:22:09;4.65;;;2.10;;
69185;SDS011;56298;49.246;9.410;2023-05-10T08:24:35;5.30;;;2.20;;
69185;SDS011;56298;49.246;9.410;2023-05-10T08:27:04;3.90;;;2.00;;
69185;SDS011;56298;49.246;9.410;2023-05-10T08:29:30;5.10;;;2.30;;
69185;SDS011;56298;49.246;9.410;2023-05-10T08:31:56;4.90;;;2.22;;
69185;SDS011;56298;49.246;9.410;2023-05-10T08:34:21;4.93;;;2.17;;
69185;SDS011;56298;49.246;9.410;2023-05-10T08:36:46;5.60;;;1.87;;
69185;SDS011;56298;49.246;9.410;2023-05-10T08:39:11;4.03;;;1.73;;
69185;SDS011;56298;49.246;9.410;2023-05-10T08:41:37;4.00;;;1.77;;
69185;SDS011;56298;49.246;9.410;2023-05-10T08:44:04;6.17;;;2.00;;
69185;SDS011;56298;49.246;9.410;2023-05-10T08:46:30;4.35;;;2.00;;
69185;SDS011;56298;49.246;9.410;2023-05-10T08:48:58;4.50;;;1.70;;
69185;SDS011;56298;49.246;9.410;2023-05-10T08:51:26;4.57;;;1.50;;
69185;SDS011;56298;49.246;9.410;2023-05-10T08:53:57;4.00;;;1.85;;
69185;SDS011;56298;49.246;9.410;2023-05-10T08:56:22;4.37;;;1.70;;
69185;SDS011;56298;49.246;9.410;2023-05-10T08:58:48;4.78;;;2.10;;
69185;SDS011;56298;49.246;9.410;2023-05-10T09:01:14;4.50;;;1.60;;
69185;SDS011;56298;49.246;9.410;2023-05-10T09:03:41;3.45;;;1.40;;
69185;SDS011;56298;49.246;9.410;2023-05-10T09:06:07;3.57;;;1.50;;
69185;SDS011;56298;49.246;9.410;2023-05-10T09:08:33;4.70;;;1.30;;
69185;SDS011;56298;49.246;9.410;2023-05-10T09:10:58;4.83;;;1.30;;
69185;SDS011;56298;49.246;9.410;2023-05-10T09:13:26;4.90;;;1.38;;
69185;SDS011;56298;49.246;9.410;2023-05-10T09:15:51;3.77;;;1.40;;
69185;SDS011;56298;49.246;9.410;2023-05-10T09:18:17;4.32;;;1.25;;
69185;SDS011;56298;49.246;9.410;2023-05-10T09:20:43;4.47;;;1.10;;
69185;SDS011;56298;49.246;9.410;2023-05-10T09:23:08;3.50;;;1.20;;
69185;SDS011;56298;49.246;9.410;2023-05-10T09:25:33;3.80;;;1.20;;
69185;SDS011;56298;49.246;9.410;2023-05-10T09:27:59;4.05;;;1.08;;
69185;SDS011;56298;49.246;9.410;2023-05-10T09:30:29;3.50;;;1.00;;
69185;SDS011;56298;49.246;9.410;2023-05-10T09:32:55;3.65;;;1.00;;
69185;SDS011;56298;49.246;9.410;2023-05-10T09:35:23;3.57;;;1.10;;
69185;SDS011;56298;49.246;9.410;2023-05-10T09:37:50;3.78;;;0.95;;
69185;SDS011;56298;49.246;9.410;2023-05-10T09:40:17;3.27;;;0.90;;
69185;SDS011;56298;49.246;9.410;2023-05-10T09:42:53;2.80;;;0.90;;
69185;SDS011;56298;49.246;9.410;2023-05-10T09:45:21;3.10;;;0.85;;
69185;SDS011;56298;49.246;9.410;2023-05-10T09:47:47;4.47;;;0.90;;
69185;SDS011;56298;49.246;9.410;2023-05-10T09:50:13;3.43;;;1.00;;
69185;SDS011;56298;49.246;9.410;2023-05-10T09:55:13;3.05;;;0.90;;
69185;SDS011;56298;49.246;9.410;2023-05-10T09:57:40;3.23;;;1.00;;
69185;SDS011;56298;49.246;9.410;2023-05-10T10:00:06;3.13;;;0.80;;
69185;SDS011;56298;49.246;9.410;2023-05-10T10:02:32;3.10;;;0.80;;
69185;SDS011;56298;49.246;9.410;2023-05-10T10:04:58;4.30;;;0.83;;
69185;SDS011;56298;49.246;9.410;2023-05-10T10:07:26;3.00;;;0.90;;
69185;SDS011;56298;49.246;9.410;2023-05-10T10:09:52;3.85;;;0.90;;
69185;SDS011;56298;49.246;9.410;2023-05-10T10:12:18;21.08;;;2.30;;
69185;SDS011;56298;49.246;9.410;2023-05-10T10:14:45;4.57;;;0.80;;
69185;SDS011;56298;49.246;9.410;2023-05-10T10:17:11;6.50;;;1.23;;
69185;SDS011;56298;49.246;9.410;2023-05-10T10:19:37;7.53;;;1.10;;
69185;SDS011;56298;49.246;9.410;2023-05-10T10:22:02;35.93;;;4.57;;
69185;SDS011;56298;49.246;9.410;2023-05-10T10:24:27;8.90;;;1.17;;
69185;SDS011;56298;49.246;9.410;2023-05-10T10:26:53;4.30;;;0.80;;
69185;SDS011;56298;49.246;9.410;2023-05-10T10:29:26;11.70;;;1.60;;
69185;SDS011;56298;49.246;9.410;2023-05-10T10:32:09;4.93;;;1.10;;
69185;SDS011;56298;49.246;9.410;2023-05-10T10:34:44;11.52;;;1.77;;
69185;SDS011;56298;49.246;9.410;2023-05-10T10:37:09;3.07;;;0.70;;
69185;SDS011;56298;49.246;9.410;2023-05-10T10:39:35;3.27;;;0.90;;
69185;SDS011;56298;49.246;9.410;2023-05-10T10:42:01;4.10;;;0.90;;
69185;SDS011;56298;49.246;9.410;2023-05-10T10:49:27;24.92;;;2.88;;
69185;SDS011;56298;49.246;9.410;2023-05-10T10:57:24;4.85;;;0.90;;
69185;SDS011;56298;49.246;9.410;2023-05-10T10:59:51;2.90;;;0.80;;
69185;SDS011;56298;49.246;9.410;2023-05-10T11:02:46;3.50;;;0.80;;
69185;SDS011;56298;49.246;9.410;2023-05-10T11:05:23;2.92;;;0.70;;
69185;SDS011;56298;49.246;9.410;2023-05-10T11:07:55;5.05;;;0.80;;
69185;SDS011;56298;49.246;9.410;2023-05-10T11:10:22;3.45;;;0.80;;
69185;SDS011;56298;49.246;9.410;2023-05-10T11:15:38;3.23;;;0.80;;
69185;SDS011;56298;49.246;9.410;2023-05-10T11:18:24;4.15;;;0.90;;
69185;SDS011;56298;49.246;9.410;2023-05-10T11:20:51;3.45;;;0.90;;
69185;SDS011;56298;49.246;9.410;2023-05-10T11:25:57;3.15;;;0.90;;
69185;SDS011;56298;49.246;9.410;2023-05-10T11:28:23;3.83;;;1.08;;
69185;SDS011;56298;49.246;9.410;2023-05-10T11:30:48;4.17;;;1.00;;
69185;SDS011;56298;49.246;9.410;2023-05-10T11:33:15;4.37;;;0.90;;
69185;SDS011;56298;49.246;9.410;2023-05-10T11:35:44;3.80;;;1.10;;
69185;SDS011;56298;49.246;9.410;2023-05-10T11:38:10;4.22;;;1.17;;
69185;SDS011;56298;49.246;9.410;2023-05-10T11:40:37;3.50;;;0.90;;
69185;SDS011;56298;49.246;9.410;2023-05-10T11:43:03;3.20;;;1.00;;
69185;SDS011;56298;49.246;9.410;2023-05-10T11:45:29;3.85;;;0.85;;
69185;SDS011;56298;49.246;9.410;2023-05-10T11:47:57;3.50;;;0.90;;
69185;SDS011;56298;49.246;9.410;2023-05-10T11:50:22;4.40;;;1.00;;
69185;SDS011;56298;49.246;9.410;2023-05-10T11:52:57;3.10;;;0.97;;
69185;SDS011;56298;49.246;9.410;2023-05-10T11:55:23;2.97;;;1.00;;
69185;SDS011;56298;49.246;9.410;2023-05-10T11:57:52;3.80;;;0.70;;
69185;SDS011;56298;49.246;9.410;2023-05-10T12:00:18;3.20;;;0.70;;
69185;SDS011;56298;49.246;9.410;2023-05-10T12:02:43;3.40;;;0.70;;
69185;SDS011;56298;49.246;9.410;2023-05-10T12:05:09;2.40;;;0.60;;
69185;SDS011;56298;49.246;9.410;2023-05-10T12:07:35;2.95;;;0.50;;
69185;SDS011;56298;49.246;9.410;2023-05-10T12:10:07;2.60;;;0.50;;
69185;SDS011;56298;49.246;9.410;2023-05-10T12:12:46;3.08;;;0.70;;
69185;SDS011;56298;49.246;9.410;2023-05-10T12:15:21;3.70;;;0.77;;
69185;SDS011;56298;49.246;9.410;2023-05-10T12:17:48;3.60;;;0.60;;
69185;SDS011;56298;49.246;9.410;2023-05-10T12:20:15;3.58;;;0.70;;
69185;SDS011;56298;49.246;9.410;2023-05-10T12:22:46;2.58;;;0.70;;
69185;SDS011;56298;49.246;9.410;2023-05-10T12:25:16;3.55;;;0.60;;
69185;SDS011;56298;49.246;9.410;2023-05-10T12:27:52;3.30;;;0.80;;
69185;SDS011;56298;49.246;9.410;2023-05-10T12:30:23;3.22;;;0.77;;
69185;SDS011;56298;49.246;9.410;2023-05-10T12:32:50;3.60;;;0.80;;
69185;SDS011;56298;49.246;9.410;2023-05-10T12:35:16;3.60;;;0.90;;
69185;SDS011;56298;49.246;9.410;2023-05-10T12:37:42;3.30;;;0.82;;
69185;SDS011;56298;49.246;9.410;2023-05-10T12:40:08;4.70;;;0.70;;
69185;SDS011;56298;49.246;9.410;2023-05-10T12:42:35;4.15;;;0.90;;
69185;SDS011;56298;49.246;9.410;2023-05-10T12:45:01;3.77;;;0.90;;
69185;SDS011;56298;49.246;9.410;2023-05-10T12:47:27;5.30;;;0.90;;
69185;SDS011;56298;49.246;9.410;2023-05-10T12:49:53;4.63;;;0.68;;
69185;SDS011;56298;49.246;9.410;2023-05-10T12:52:18;4.10;;;1.20;;
69185;SDS011;56298;49.246;9.410;2023-05-10T12:54:43;3.60;;;0.90;;
69185;SDS011;56298;49.246;9.410;2023-05-10T12:57:08;4.30;;;0.80;;
69185;SDS011;56298;49.246;9.410;2023-05-10T12:59:33;5.67;;;1.00;;
69185;SDS011;56298;49.246;9.410;2023-05-10T13:01:59;3.73;;;1.03;;
69185;SDS011;56298;49.246;9.410;2023-05-10T13:04:24;4.20;;;1.00;;
69185;SDS011;56298;49.246;9.410;2023-05-10T13:06:50;3.92;;;1.02;;
69185;SDS011;56298;49.246;9.410;2023-05-10T13:09:15;3.15;;;0.90;;
69185;SDS011;56298;49.246;9.410;2023-05-10T13:11:41;4.00;;;0.90;;
69185;SDS011;56298;49.246;9.410;2023-05-10T13:14:06;3.60;;;0.93;;
69185;SDS011;56298;49.246;9.410;2023-05-10T13:16:31;4.47;;;1.20;;
69185;SDS011;56298;49.246;9.410;2023-05-10T13:18:57;4.67;;;1.20;;
69185;SDS011;56298;49.246;9.410;2023-05-10T13:21:23;4.05;;;1.00;;
69185;SDS011;56298;49.246;9.410;2023-05-10T13:23:49;4.82;;;1.10;;
69185;SDS011;56298;49.246;9.410;2023-05-10T13:26:15;3.37;;;1.00;;
69185;SDS011;56298;49.246;9.410;2023-05-10T13:28:40;3.27;;;0.80;;
69185;SDS011;56298;49.246;9.410;2023-05-10T13:31:05;4.43;;;1.10;;
69185;SDS011;56298;49.246;9.410;2023-05-10T13:33:31;5.70;;;1.20;;
69185;SDS011;56298;49.246;9.410;2023-05-10T13:35:56;4.27;;;1.00;;
69185;SDS011;56298;49.246;9.410;2023-05-10T13:38:21;5.03;;;1.27;;
69185;SDS011;56298;49.246;9.410;2023-05-10T13:40:46;5.97;;;1.20;;
69185;SDS011;56298;49.246;9.410;2023-05-10T13:43:12;4.47;;;1.23;;
69185;SDS011;56298;49.246;9.410;2023-05-10T13:45:37;4.17;;;1.20;;
69185;SDS011;56298;49.246;9.410;2023-05-10T13:48:02;4.00;;;1.00;;
69185;SDS011;56298;49.246;9.410;2023-05-10T13:50:28;5.70;;;1.00;;
69185;SDS011;56298;49.246;9.410;2023-05-10T13:52:53;4.87;;;1.30;;
69185;SDS011;56298;49.246;9.410;2023-05-10T13:55:18;5.20;;;1.10;;
69185;SDS011;56298;49.246;9.410;2023-05-10T13:57:44;4.33;;;1.27;;
69185;SDS011;56298;49.246;9.410;2023-05-10T14:00:09;5.10;;;1.10;;
69185;SDS011;56298;49.246;9.410;2023-05-10T14:02:35;3.88;;;1.00;;
69185;SDS011;56298;49.246;9.410;2023-05-10T14:05:00;4.23;;;1.10;;
69185;SDS011;56298;49.246;9.410;2023-05-10T14:07:26;3.83;;;1.00;;
69185;SDS011;56298;49.246;9.410;2023-05-10T14:09:51;4.33;;;1.10;;
69185;SDS011;56298;49.246;9.410;2023-05-10T14:12:16;3.77;;;1.00;;
69185;SDS011;56298;49.246;9.410;2023-05-10T14:14:42;4.27;;;0.93;;
69185;SDS011;56298;49.246;9.410;2023-05-10T14:17:07;5.37;;;1.20;;
69185;SDS011;56298;49.246;9.410;2023-05-10T14:19:32;6.90;;;1.10;;
69185;SDS011;56298;49.246;9.410;2023-05-10T14:21:59;5.03;;;0.90;;
69185;SDS011;56298;49.246;9.410;2023-05-10T14:24:24;4.50;;;1.10;;
69185;SDS011;56298;49.246;9.410;2023-05-10T14:26:50;5.67;;;1.20;;
69185;SDS011;56298;49.246;9.410;2023-05-10T14:29:18;4.78;;;1.10;;
69185;SDS011;56298;49.246;9.410;2023-05-10T14:31:43;4.80;;;1.10;;
69185;SDS011;56298;49.246;9.410;2023-05-10T14:34:09;5.47;;;1.03;;
69185;SDS011;56298;49.246;9.410;2023-05-10T14:36:34;5.23;;;1.10;;
69185;SDS011;56298;49.246;9.410;2023-05-10T14:39:00;4.17;;;1.10;;
69185;SDS011;56298;49.246;9.410;2023-05-10T14:41:25;4.10;;;1.00;;
69185;SDS011;56298;49.246;9.410;2023-05-10T14:43:50;3.53;;;1.10;;
69185;SDS011;56298;49.246;9.410;2023-05-10T14:46:16;4.85;;;1.10;;
69185;SDS011;56298;49.246;9.410;2023-05-10T14:48:41;5.53;;;1.27;;
69185;SDS011;56298;49.246;9.410;2023-05-10T14:51:07;3.90;;;1.17;;
69185;SDS011;56298;49.246;9.410;2023-05-10T14:53:32;4.47;;;1.20;;
69185;SDS011;56298;49.246;9.410;2023-05-10T14:55:57;5.37;;;1.10;;
69185;SDS011;56298;49.246;9.410;2023-05-10T14:58:23;4.90;;;1.20;;
69185;SDS011;56298;49.246;9.410;2023-05-10T15:00:48;4.20;;;1.10;;
69185;SDS011;56298;49.246;9.410;2023-05-10T15:03:13;3.20;;;1.00;;
69185;SDS011;56298;49.246;9.410;2023-05-10T15:05:39;4.40;;;1.10;;
69185;SDS011;56298;49.246;9.410;2023-05-10T15:08:04;4.93;;;1.13;;
69185;SDS011;56298;49.246;9.410;2023-05-10T15:10:30;3.67;;;1.00;;
69185;SDS011;56298;49.246;9.410;2023-05-10T15:12:57;3.78;;;0.80;;
69185;SDS011;56298;49.246;9.410;2023-05-10T15:15:22;5.03;;;1.10;;
69185;SDS011;56298;49.246;9.410;2023-05-10T15:17:48;5.30;;;1.20;;
69185;SDS011;56298;49.246;9.410;2023-05-10T15:20:13;4.33;;;1.10;;
69185;SDS011;56298;49.246;9.410;2023-05-10T15:22:38;4.37;;;1.00;;
69185;SDS011;56298;49.246;9.410;2023-05-10T15:25:04;4.80;;;1.20;;